AirNav   TITAN Aviation Fuels
 
 900 users online  

2M0 Princeton-Caldwell County Airport
Princeton, Kentucky, USA

GOING TO PRINCETON?


FAA INFORMATION EFFECTIVE 26 JANUARY 2023

Location

FAA Identifier: 2M0
Lat/Long: 37-06-54.4758N 087-51-25.4958W
37-06.907930N 087-51.424930W
37.1151322,-87.8570822
(estimated)
Elevation: 584.3 ft. / 178.1 m (surveyed)
Variation: 03W (2015)
From city: 2 miles NE of PRINCETON, KY
Time zone: UTC -6 (UTC -5 during Daylight Saving Time)
Zip code: 42445

Airport Operations

Airport use: Open to the public
Activation date: 08/1962
Control tower: no
ARTCC: MEMPHIS CENTER
FSS: LOUISVILLE FLIGHT SERVICE STATION
NOTAMs facility: LOU (NOTAM-D service available)
Attendance: UNATNDD
Wind indicator: lighted
Segmented circle: yes
Lights: ACTVT REIL RWY 05/23; PAPI RWY 05/23; MIRL RWY 05/23 - CTAF.
Beacon: white-green (lighted land airport)
Operates sunset to sunrise.

Airport Communications

CTAF/UNICOM: 122.8
CAMPBELL APPROACH: 118.1
CAMPBELL DEPARTURE: 118.1
WX AWOS-3P at GDA (18 nm NW): 118.15 (270-965-4877)
  • APCH/DEP SVC PRVDD BY CAMPBELL APCH ON 118.1/269.525 .

Nearby radio navigation aids

VOR radial/distance  VOR name  Freq  Var
CKVr325/36.5CLARKSVILLE VOR/DME110.6001W

Airport Services

Fuel available: 100LL
100LL:FUEL AVBL 24/7 WITH CC.
Parking: tiedowns
Airframe service: NONE
Powerplant service: NONE
Bottled oxygen: NONE
Bulk oxygen: NONE

Runway Information

Runway 5/23

Dimensions: 4099 x 76 ft. / 1249 x 23 m
Surface: asphalt, in fair condition
Weight bearing capacity: 
Single wheel: 12.0
Runway edge lights: medium intensity
Runway edge markings: ALGAE COVERED & FADED.
RUNWAY 5  RUNWAY 23
Latitude: 37-06.678170N37-07.137688N
Longitude: 087-51.734082W087-51.115778W
Elevation: 584.3 ft.541.0 ft.
Traffic pattern: leftleft
Markings: nonprecision, in poor conditionnonprecision, in poor condition
Visual slope indicator: 2-light PAPI on left (3.25 degrees glide path)2-light PAPI on left (3.00 degrees glide path)
Runway end identifier lights: yesyes
Touchdown point: yes, no lightsyes, no lights
Obstructions: 11 ft. berm, 253 ft. from runway, 253 ft. right of centerline, 4:1 slope to clear
+4 FT BERM 49 FT FROM RWY END, 124 FT L.
none

Airport Ownership and Management from official FAA records

Ownership: Publicly-owned
Owner: PRINCETON-CALDWELL CO ARPT BD
106 MEADOWBROOK DRIVE
PRINCETON, KY 42445
Phone (270) 625-3609
Manager: LLOYD MURDOCK
106 MEADOWBROOK DRIVE
PRINCETON, KY 42445
Phone (270) 625-3609

Airport Operational Statistics

Aircraft based on the field: 11
Single engine airplanes: 11
    
Aircraft operations: avg 22/day *
53% transient general aviation
41% local general aviation
3% military
3% air taxi
* for 12-month period ending 18 October 2019

Additional Remarks

FOR CD CTC CAMPBELL APCH AT 270-798-6441.

Instrument Procedures

NOTE: All procedures below are presented as PDF files. If you need a reader for these files, you should download the free Adobe Reader.

NOT FOR NAVIGATION. Please procure official charts for flight.
FAA instrument procedures published for use from 26 January 2023 at 0901Z to 23 February 2023 at 0900z.

 
IAPs - Instrument Approach Procedures
RNAV (GPS) RWY 05 **CHANGED**   download
RNAV (GPS) RWY 23 **CHANGED**   download
NOTE: Special Take-Off Minimums/Departure Procedures apply   download (129KB)

Other nearby airports with instrument procedures:

KGDA - Marion-Crittenden County James C Johnson Regional Airport (18 nm NW)
KHVC - Hopkinsville-Christian County Airport (25 nm SE)
KTWT - Sturgis Municipal Airport (26 nm N)
2I0 - Madisonville Regional Airport (26 nm NE)
KHOP - Campbell Army Airfield (Fort Campbell) (32 nm SE)
 
Loc | Ops | Rwys | IFR | FBO | Links
Com | Nav | Svcs | Stats | Notes
Area around 2M0 (Princeton-Caldwell County Airport)
 
Road maps at: MapQuest Bing Google
 
Aerial photo
WARNING: Photo may not be current or correct
Aerial photo of 2M0 (Princeton-Caldwell County Airport)
Do you have a better or more recent aerial photo of Princeton-Caldwell County Airport that you would like to share? If so, please send us your photo.

 
Sectional chart

 
Airport distance calculator
Flying to Princeton-Caldwell County Airport? Find the distance to fly.

From to 2M0

Sunrise and sunset
Times for 26-Jan-2023
 Local
(UTC-6)
 Zulu
(UTC)
Morning civil twilight06:3212:32
Sunrise07:0013:00
Sunset17:0823:08
Evening civil twilight17:3623:36

Current date and time
Zulu (UTC)  27-Jan-2023 02:27:45
Local (UTC-6)  26-Jan-2023 20:27:45
 
METAR
KGDA 
18nm NW 
270215Z AUTO 22004KT 10SM CLR M02/M06 A3018 RMK AO2 T10161056
KTWT 
26nm N 
270215Z AUTO 22005KT 10SM CLR 00/M05 A3019 RMK AO2
K2I0 
26nm NE 
270215Z AUTO 23007KT 10SM CLR M01/M05 A3020 RMK AO2 T10101050
KHOP 
32nm SE 
270155Z AUTO 23008KT 10SM CLR M02/M04 A3020 RMK AO2 SLP234 T10251036
KM21 
34nm E 
270215Z AUTO 22004KT 10SM CLR M01/M05 A3020 RMK AO2 T10061048
TAF
KHOP 
32nm SE 
270000Z 2700/2806 26007KT 9999 BKN035 QNH3019INS BECMG 2704/2705 26007KT 9999 FEW030 QNH3015INS BECMG 2802/2803 27009KT 9999 SKC 510202 QNH3018INS TX09/2721Z TNM02/2709Z
KCKV 
37nm SE 
261720Z 2618/2718 27012KT P6SM BKN030 FM270000 25008KT P6SM BKN030 FM271500 20011KT P6SM SKC
NOTAMs
Click for the latest NOTAMs
NOTAMs are issued by the DoD/FAA and will open in a separate window not controlled by AirNav.

 

 
 

FBO, Fuel Providers, and Aircraft Ground Support

  
 Business Name 
 
 Contact 
 
 Services / Description 
 
Fuel Prices
 
Comments
  
Princeton Caldwell Airport 270-625-0871
no information available

If you are affiliated with Princeton Caldwell Airport and would like to show here your services, contact info, web link, logo, and more, click here
100LL
SS $5.99 
 Updated 17-Sep-2022
 
   write
SS=Self service
Update Fuel Prices
 

Would you like to see your business listed on this page?

 If your business provides an interesting product or service to pilots, flight crews, aircraft, or users of the Princeton-Caldwell County Airport, you should consider listing it here.  To start the listing process, click on the button below
 
Add a business
 

Other Pages about Princeton-Caldwell County Airport

Update a link
 
Copyright © AirNav, LLC. All rights reserved. Privacy Policy  Contact